createdAt,value
2022-10-24T00:01:11.523Z,83.36
2022-10-24T00:03:38.812Z,83.36
2022-10-24T00:06:07.644Z,83.17
2022-10-24T00:08:38.470Z,83.33
2022-10-24T00:11:15.282Z,83.52
2022-10-24T00:13:42.763Z,83.58
2022-10-24T00:16:10.489Z,83.20
2022-10-24T00:18:37.821Z,83.70
2022-10-24T00:21:05.501Z,83.36
2022-10-24T00:23:32.419Z,83.70
2022-10-24T00:26:04.384Z,83.30
2022-10-24T00:28:33.946Z,83.42
2022-10-24T00:31:01.543Z,83.62
2022-10-24T00:33:28.516Z,83.70
2022-10-24T00:35:55.577Z,83.55
2022-10-24T00:38:22.773Z,83.87
2022-10-24T00:40:50.046Z,83.56
2022-10-24T00:43:21.635Z,83.42
2022-10-24T00:46:02.585Z,83.89
2022-10-24T00:48:52.780Z,83.67
2022-10-24T00:51:29.129Z,83.79
2022-10-24T00:54:07.549Z,83.66
2022-10-24T00:56:42.127Z,83.54
2022-10-24T00:59:09.780Z,83.75
2022-10-24T01:01:38.409Z,83.69
2022-10-24T01:04:06.929Z,83.82
2022-10-24T01:06:55.361Z,83.75
2022-10-24T01:09:38.712Z,84.14
2022-10-24T01:12:30.588Z,83.69
2022-10-24T01:15:22.833Z,83.38
2022-10-24T01:18:09.838Z,83.83
2022-10-24T01:20:43.003Z,83.93
2022-10-24T01:23:31.809Z,83.83
2022-10-24T01:26:36.199Z,83.57
2022-10-24T01:29:37.191Z,83.84
2022-10-24T01:32:25.399Z,83.93
2022-10-24T01:34:57.521Z,83.94
2022-10-24T01:37:46.884Z,83.93
2022-10-24T01:40:21.477Z,83.95
2022-10-24T01:42:49.866Z,83.76
2022-10-24T01:45:22.872Z,83.72
2022-10-24T01:47:53.788Z,83.90
2022-10-24T01:50:22.776Z,84.12
2022-10-24T01:52:50.178Z,83.75
2022-10-24T01:55:17.203Z,84.07
2022-10-24T01:57:44.112Z,84.08
2022-10-24T02:00:18.386Z,84.17
2022-10-24T02:02:53.698Z,84.39
2022-10-24T02:05:30.083Z,84.26
2022-10-24T02:08:03.347Z,84.02
2022-10-24T02:10:36.065Z,84.34
2022-10-24T02:13:12.538Z,83.80
2022-10-24T02:15:45.710Z,83.93
2022-10-24T02:18:13.127Z,84.24
2022-10-24T02:20:51.398Z,84.44
2022-10-24T02:23:30.818Z,83.90
2022-10-24T02:26:00.978Z,84.11
2022-10-24T02:28:31.778Z,84.70
2022-10-24T02:31:21.922Z,84.00
2022-10-24T02:33:49.921Z,84.52
2022-10-24T02:36:19.809Z,84.55
2022-10-24T02:38:48.106Z,84.12
2022-10-24T02:41:25.645Z,84.54
2022-10-24T02:43:53.449Z,84.49
2022-10-24T02:46:21.239Z,84.76
2022-10-24T02:48:52.120Z,84.52
2022-10-24T02:51:21.200Z,84.47
2022-10-24T02:53:50.220Z,84.70
2022-10-24T02:56:17.455Z,84.44
2022-10-24T02:58:44.456Z,84.45
2022-10-24T03:01:11.700Z,84.85
2022-10-24T03:03:38.796Z,84.81
2022-10-24T03:06:06.121Z,84.75
2022-10-24T03:08:33.181Z,84.83
2022-10-24T03:11:00.321Z,84.53
2022-10-24T03:13:27.338Z,84.98
2022-10-24T03:15:54.300Z,85.07
2022-10-24T03:18:21.318Z,84.76
2022-10-24T03:20:48.380Z,85.03
2022-10-24T03:23:16.637Z,84.82
2022-10-24T03:25:43.650Z,85.13
2022-10-24T03:28:10.540Z,85.03
2022-10-24T03:30:37.510Z,84.94
2022-10-24T03:33:04.488Z,84.98
2022-10-24T03:35:31.388Z,85.04
2022-10-24T03:37:58.729Z,84.65
2022-10-24T03:40:25.681Z,85.37
2022-10-24T03:42:52.599Z,84.79
2022-10-24T03:45:19.578Z,85.10
2022-10-24T03:47:46.462Z,85.13
2022-10-24T03:50:13.492Z,85.27
2022-10-24T03:52:40.539Z,85.08
2022-10-24T03:55:08.089Z,85.41
2022-10-24T03:57:35.293Z,85.24
2022-10-24T04:00:02.526Z,85.30
2022-10-24T04:02:33.479Z,85.42
2022-10-24T04:05:01.381Z,84.99
2022-10-24T04:07:28.437Z,85.48
2022-10-24T04:09:55.837Z,85.35
2022-10-24T04:12:23.377Z,85.29
2022-10-24T04:14:50.440Z,85.52
2022-10-24T04:17:17.578Z,84.91
2022-10-24T04:19:44.637Z,85.38
2022-10-24T04:22:11.727Z,84.97
2022-10-24T04:24:39.501Z,84.99
2022-10-24T04:27:07.729Z,84.98
2022-10-24T04:29:35.436Z,85.41
2022-10-24T04:32:02.649Z,85.25
2022-10-24T04:34:29.541Z,85.62
2022-10-24T04:36:56.561Z,85.01
2022-10-24T04:39:23.397Z,85.38
2022-10-24T04:41:50.328Z,85.09
2022-10-24T04:44:17.210Z,85.01
2022-10-24T04:46:47.881Z,85.18
2022-10-24T04:49:16.051Z,85.65
2022-10-24T04:51:42.941Z,85.74
2022-10-24T04:54:09.939Z,85.14
2022-10-24T04:56:36.852Z,85.57
2022-10-24T04:59:04.343Z,85.10
2022-10-24T05:01:31.331Z,85.43
2022-10-24T05:03:58.511Z,85.36
2022-10-24T05:06:25.509Z,85.66
2022-10-24T05:08:52.570Z,85.51
2022-10-24T05:11:19.479Z,85.11
2022-10-24T05:13:46.399Z,85.44
2022-10-24T05:16:13.430Z,85.12
2022-10-24T05:18:40.312Z,85.63
2022-10-24T05:21:07.440Z,85.75
2022-10-24T05:23:34.360Z,85.20
2022-10-24T05:26:01.420Z,85.42
2022-10-24T05:28:28.311Z,85.57
2022-10-24T05:30:55.286Z,85.64
2022-10-24T05:33:23.645Z,85.23
2022-10-24T05:35:51.742Z,85.61
2022-10-24T05:38:18.830Z,85.74
2022-10-24T05:40:49.329Z,85.47
2022-10-24T05:43:17.026Z,85.19
2022-10-24T05:45:44.400Z,85.82
2022-10-24T05:48:11.463Z,85.54
2022-10-24T05:50:38.401Z,85.29
2022-10-24T05:53:05.582Z,85.39
2022-10-24T05:55:33.719Z,85.76
2022-10-24T05:58:00.741Z,85.10
2022-10-24T06:00:27.841Z,85.51
2022-10-24T06:02:54.879Z,85.12
2022-10-24T06:05:21.927Z,85.29
2022-10-24T06:07:49.249Z,85.69
2022-10-24T06:10:16.574Z,85.38
2022-10-24T06:12:44.183Z,85.55
2022-10-24T06:15:13.759Z,85.27
2022-10-24T06:17:40.913Z,85.44
2022-10-24T06:20:08.502Z,85.54
2022-10-24T06:22:35.510Z,85.70
2022-10-24T06:25:02.615Z,85.19
2022-10-24T06:27:29.686Z,85.36
2022-10-24T06:29:56.649Z,85.44
2022-10-24T06:32:23.662Z,85.47
2022-10-24T06:34:50.954Z,85.39
2022-10-24T06:37:18.103Z,85.22
2022-10-24T06:39:45.117Z,85.64
2022-10-24T06:42:12.176Z,85.63
2022-10-24T06:44:39.078Z,85.54
2022-10-24T06:47:06.600Z,85.70
2022-10-24T06:49:33.617Z,85.43
2022-10-24T06:52:00.602Z,85.30
2022-10-24T06:54:30.141Z,85.40
2022-10-24T06:56:57.801Z,85.62
2022-10-24T06:59:24.844Z,85.62
2022-10-24T07:01:52.062Z,85.53
2022-10-24T07:04:19.458Z,85.41
2022-10-24T07:06:46.544Z,85.29
2022-10-24T07:09:15.442Z,85.63
2022-10-24T07:11:43.765Z,85.23
2022-10-24T07:14:11.277Z,85.59
2022-10-24T07:16:38.732Z,85.47
2022-10-24T07:19:05.921Z,85.57
2022-10-24T07:21:33.865Z,85.64
2022-10-24T07:24:01.403Z,85.72
2022-10-24T07:26:29.819Z,85.63
2022-10-24T07:31:32.196Z,85.51
2022-10-24T07:34:00.837Z,85.42
2022-10-24T07:36:28.338Z,85.55
2022-10-24T07:38:57.118Z,85.15
2022-10-24T07:41:25.608Z,85.08
2022-10-24T07:43:53.060Z,85.21
2022-10-24T07:46:20.327Z,85.39
2022-10-24T07:48:49.837Z,85.41
2022-10-24T07:51:17.327Z,85.18
2022-10-24T07:53:44.271Z,85.30
2022-10-24T07:56:14.543Z,85.43
2022-10-24T07:58:43.337Z,85.16
2022-10-24T08:01:13.763Z,85.55
2022-10-24T08:03:41.423Z,85.11
2022-10-24T08:06:14.178Z,85.36
2022-10-24T08:08:41.645Z,85.39
2022-10-24T08:11:14.732Z,85.45
2022-10-24T08:13:42.077Z,85.26
2022-10-24T08:16:10.569Z,85.51
2022-10-24T08:18:39.486Z,85.21
2022-10-24T08:21:10.377Z,85.26
2022-10-24T08:23:40.132Z,85.05
2022-10-24T08:26:09.247Z,85.24
2022-10-24T08:28:37.843Z,85.13
2022-10-24T08:31:07.426Z,85.15
2022-10-24T08:33:34.978Z,85.20
2022-10-24T08:36:07.806Z,85.09
2022-10-24T08:38:34.737Z,85.12
2022-10-24T08:41:01.904Z,85.15
2022-10-24T08:43:29.077Z,85.14
2022-10-24T08:46:09.506Z,85.32
2022-10-24T08:48:48.204Z,85.00
2022-10-24T08:51:43.618Z,84.91
2022-10-24T08:54:16.160Z,85.09
2022-10-24T08:56:43.328Z,84.85
2022-10-24T08:59:12.898Z,84.96
2022-10-24T09:01:44.993Z,84.83
2022-10-24T09:04:15.268Z,84.87
2022-10-24T09:06:42.458Z,85.12
2022-10-24T09:09:09.378Z,84.97
2022-10-24T09:11:52.829Z,84.91
2022-10-24T09:14:41.329Z,84.69
2022-10-24T09:17:22.299Z,84.62
2022-10-24T09:20:17.408Z,84.88
2022-10-24T09:22:45.129Z,84.81
2022-10-24T09:25:17.660Z,84.59
2022-10-24T09:27:45.538Z,84.61
2022-10-24T09:30:22.354Z,84.54
2022-10-24T09:32:49.438Z,84.64
2022-10-24T09:35:20.881Z,84.57
2022-10-24T09:38:26.572Z,84.71
2022-10-24T09:40:58.058Z,84.61
2022-10-24T09:43:43.608Z,84.33
2022-10-24T09:46:15.483Z,84.41
2022-10-24T09:48:42.295Z,84.31
2022-10-24T09:51:09.419Z,84.10
2022-10-24T09:53:39.378Z,84.41
2022-10-24T09:56:18.729Z,84.38
2022-10-24T09:58:45.760Z,84.38
2022-10-24T10:01:23.033Z,84.03
2022-10-24T10:04:13.063Z,84.08
2022-10-24T10:06:53.412Z,84.00
2022-10-24T10:09:31.595Z,83.79
2022-10-24T10:12:03.145Z,83.97
2022-10-24T10:14:30.343Z,83.97
2022-10-24T10:17:06.168Z,83.74
2022-10-24T10:19:37.448Z,83.93
2022-10-24T10:22:07.352Z,83.68
2022-10-24T10:24:40.600Z,83.47
2022-10-24T10:27:27.378Z,83.80
2022-10-24T10:30:13.537Z,83.75
2022-10-24T10:32:52.148Z,83.57
2022-10-24T10:35:21.338Z,83.28
2022-10-24T10:38:09.718Z,83.47
2022-10-24T10:40:47.458Z,83.12
2022-10-24T10:43:17.373Z,83.11
2022-10-24T10:45:48.260Z,83.16
2022-10-24T10:48:37.785Z,83.07
2022-10-24T10:51:39.779Z,82.71
2022-10-24T10:54:19.778Z,82.64
2022-10-24T10:56:54.468Z,82.71
2022-10-24T10:59:31.049Z,82.29
2022-10-24T11:02:20.734Z,82.32
2022-10-24T11:04:57.406Z,82.29
2022-10-24T11:07:41.287Z,81.88
2022-10-24T11:10:11.098Z,82.19
2022-10-24T11:12:45.754Z,82.11
2022-10-24T11:15:24.140Z,82.09
2022-10-24T11:18:15.127Z,81.81
2022-10-24T11:20:47.152Z,81.66
2022-10-24T11:23:24.247Z,81.59
2022-10-24T11:26:08.253Z,81.47
2022-10-24T11:29:01.748Z,81.58
2022-10-24T11:31:45.100Z,81.34
2022-10-24T11:34:19.669Z,81.34
2022-10-24T11:37:08.018Z,81.10
2022-10-24T11:39:45.216Z,80.86
2022-10-24T11:42:37.418Z,80.86
2022-10-24T11:45:10.177Z,80.90
2022-10-24T11:47:50.038Z,80.60
2022-10-24T11:50:39.848Z,80.46
2022-10-24T11:53:32.779Z,80.35
2022-10-24T11:56:37.082Z,80.17
2022-10-24T11:59:07.018Z,80.02
2022-10-24T12:01:47.752Z,80.08
2022-10-24T12:04:39.748Z,79.98
2022-10-24T12:07:46.093Z,79.86
2022-10-24T12:10:38.059Z,79.70
2022-10-24T12:13:42.399Z,79.71
2022-10-24T12:16:17.078Z,79.53
2022-10-24T12:18:49.899Z,79.49
2022-10-24T12:21:26.018Z,79.29
2022-10-24T12:24:00.744Z,79.13
2022-10-24T12:26:32.220Z,79.15
2022-10-24T12:29:18.648Z,79.20
2022-10-24T12:31:45.708Z,79.14
2022-10-24T12:34:15.657Z,79.02
2022-10-24T12:37:01.077Z,78.75
2022-10-24T12:39:54.814Z,78.85
2022-10-24T12:42:25.386Z,78.82
2022-10-24T12:45:28.567Z,78.86
2022-10-24T12:50:22.400Z,78.74
2022-10-24T12:53:07.705Z,78.60
2022-10-24T12:55:39.686Z,78.92
2022-10-24T12:58:25.387Z,78.79
2022-10-24T13:01:06.763Z,78.78
2022-10-24T13:03:42.388Z,78.92
2022-10-24T13:06:13.287Z,78.85
2022-10-24T13:09:17.698Z,78.96
2022-10-24T13:12:03.099Z,79.06
2022-10-24T13:14:39.210Z,79.02
2022-10-24T13:17:12.171Z,79.19
2022-10-24T13:19:39.622Z,79.40
2022-10-24T13:22:26.872Z,79.22
2022-10-24T13:24:54.633Z,79.59
2022-10-24T13:27:28.748Z,79.62
2022-10-24T13:30:00.447Z,79.59
2022-10-24T13:32:36.089Z,79.67
2022-10-24T13:35:04.152Z,79.82
2022-10-24T13:37:34.324Z,79.48
2022-10-24T13:40:04.106Z,79.61
2022-10-24T13:42:40.159Z,80.09
2022-10-24T13:45:21.910Z,79.86
2022-10-24T13:47:52.568Z,79.96
2022-10-24T13:50:26.298Z,80.17
2022-10-24T13:53:30.563Z,79.94
2022-10-24T13:56:00.931Z,80.21
2022-10-24T13:58:27.922Z,80.17
2022-10-24T14:01:00.983Z,80.17
2022-10-24T14:03:30.041Z,80.17
2022-10-24T14:06:05.294Z,80.04
2022-10-24T14:09:02.429Z,80.38
2022-10-24T14:11:31.583Z,80.18
2022-10-24T14:14:04.062Z,80.18
2022-10-24T14:16:35.524Z,80.27
2022-10-24T14:19:25.588Z,80.41
2022-10-24T14:21:56.769Z,80.47
2022-10-24T14:24:23.818Z,80.25
2022-10-24T14:26:53.305Z,80.44
2022-10-24T14:29:32.898Z,80.65
2022-10-24T14:32:10.312Z,80.65
2022-10-24T14:34:37.856Z,80.42
2022-10-24T14:37:08.531Z,80.71
2022-10-24T14:39:36.229Z,80.82
2022-10-24T14:42:03.441Z,80.54
2022-10-24T14:44:30.572Z,80.74
2022-10-24T14:47:39.530Z,80.90
2022-10-24T14:50:45.088Z,80.71
2022-10-24T14:53:22.809Z,81.09
2022-10-24T14:55:54.465Z,80.81
2022-10-24T14:58:24.049Z,80.69
2022-10-24T15:00:51.380Z,80.89
2022-10-24T15:03:18.407Z,81.11
2022-10-24T15:06:18.769Z,81.13
2022-10-24T15:08:50.617Z,80.93
2022-10-24T15:11:22.094Z,81.29
2022-10-24T15:14:05.573Z,81.01
2022-10-24T15:16:38.893Z,81.13
2022-10-24T15:19:09.790Z,81.14
2022-10-24T15:21:41.726Z,81.10
2022-10-24T15:24:25.608Z,80.92
2022-10-24T15:26:53.266Z,81.20
2022-10-24T15:29:22.630Z,81.08
2022-10-24T15:31:51.512Z,81.49
2022-10-24T15:34:21.711Z,81.52
2022-10-24T15:36:50.449Z,81.16
2022-10-24T15:39:19.634Z,81.39
2022-10-24T15:41:46.840Z,81.50
2022-10-24T15:44:19.561Z,81.41
2022-10-24T15:46:47.256Z,81.36
2022-10-24T15:49:14.708Z,81.73
2022-10-24T15:51:46.083Z,81.57
2022-10-24T15:54:17.488Z,81.48
2022-10-24T15:56:44.422Z,81.70
2022-10-24T15:59:11.362Z,81.52
2022-10-24T16:01:44.490Z,81.75
2022-10-24T16:04:11.627Z,81.66
2022-10-24T16:06:38.898Z,81.93
2022-10-24T16:09:10.429Z,81.85
2022-10-24T16:11:37.485Z,81.87
2022-10-24T16:14:05.599Z,81.77
2022-10-24T16:16:32.601Z,81.96
2022-10-24T16:18:59.648Z,82.16
2022-10-24T16:21:26.777Z,81.97
2022-10-24T16:23:55.140Z,81.79
2022-10-24T16:26:22.074Z,81.87
2022-10-24T16:28:49.095Z,82.13
2022-10-24T16:31:19.719Z,82.01
2022-10-24T16:33:47.093Z,82.15
2022-10-24T16:36:16.659Z,82.00
2022-10-24T16:38:46.624Z,81.99
2022-10-24T16:41:18.260Z,82.42
2022-10-24T16:43:49.146Z,82.06
2022-10-24T16:46:18.517Z,82.11
2022-10-24T16:48:45.900Z,82.53
2022-10-24T16:51:17.928Z,82.40
2022-10-24T16:53:45.429Z,82.37
2022-10-24T16:56:14.247Z,82.63
2022-10-24T16:58:41.942Z,82.46
2022-10-24T17:01:11.236Z,82.60
2022-10-24T17:03:39.118Z,82.69
2022-10-24T17:06:06.832Z,82.33
2022-10-24T17:08:34.108Z,82.48
2022-10-24T17:11:01.725Z,82.58
2022-10-24T17:13:29.572Z,82.65
2022-10-24T17:15:57.368Z,82.63
2022-10-24T17:18:27.423Z,82.47
2022-10-24T17:21:00.504Z,82.50
2022-10-24T17:23:29.758Z,82.71
2022-10-24T17:25:59.319Z,82.80
2022-10-24T17:28:32.306Z,82.82
2022-10-24T17:31:01.509Z,82.90
2022-10-24T17:33:36.201Z,82.48
2022-10-24T17:36:07.809Z,82.96
2022-10-24T17:38:45.710Z,82.68
2022-10-24T17:41:39.399Z,83.00
2022-10-24T17:44:15.614Z,82.84
2022-10-24T17:46:44.925Z,82.75
2022-10-24T17:49:17.908Z,82.76
2022-10-24T17:51:49.645Z,83.01
2022-10-24T17:54:16.948Z,83.12
2022-10-24T17:56:44.602Z,83.14
2022-10-24T17:59:12.260Z,83.31
2022-10-24T18:01:39.431Z,82.96
2022-10-24T18:04:06.654Z,83.26
2022-10-24T18:06:33.918Z,83.14
2022-10-24T18:09:00.963Z,83.19
2022-10-24T18:11:27.868Z,83.21
2022-10-24T18:13:54.843Z,83.48
2022-10-24T18:16:22.165Z,83.39
2022-10-24T18:18:49.578Z,83.32
2022-10-24T18:21:22.022Z,83.63
2022-10-24T18:23:49.225Z,83.52
2022-10-24T18:26:21.488Z,83.33
2022-10-24T18:28:50.321Z,83.61
2022-10-24T18:31:24.049Z,83.42
2022-10-24T18:33:51.738Z,83.86
2022-10-24T18:36:25.112Z,83.73
2022-10-24T18:38:55.071Z,83.86
2022-10-24T18:41:31.029Z,83.87
2022-10-24T18:44:00.064Z,84.01
2022-10-24T18:46:28.308Z,83.61
2022-10-24T18:48:55.669Z,83.67
2022-10-24T18:51:59.884Z,83.91
2022-10-24T18:54:27.081Z,84.01
2022-10-24T18:56:54.331Z,84.11
2022-10-24T18:59:21.879Z,83.90
2022-10-24T19:02:14.018Z,83.59
2022-10-24T19:04:43.168Z,84.13
2022-10-24T19:07:10.758Z,83.97
2022-10-24T19:09:37.802Z,84.04
2022-10-24T19:12:07.111Z,83.88
2022-10-24T19:14:34.432Z,84.15
2022-10-24T19:17:03.227Z,83.91
2022-10-24T19:19:36.645Z,84.17
2022-10-24T19:22:03.792Z,83.85
2022-10-24T19:24:30.906Z,84.23
2022-10-24T19:26:57.875Z,84.18
2022-10-24T19:29:25.014Z,84.17
2022-10-24T19:31:51.991Z,84.16
2022-10-24T19:34:19.099Z,84.08
2022-10-24T19:36:46.106Z,84.26
2022-10-24T19:39:13.191Z,84.24
2022-10-24T19:41:40.616Z,84.18
2022-10-24T19:44:07.494Z,84.11
2022-10-24T19:46:34.494Z,84.42
2022-10-24T19:49:01.404Z,84.44
2022-10-24T19:51:28.303Z,84.23
2022-10-24T19:53:57.108Z,84.14
2022-10-24T19:56:26.852Z,84.21
2022-10-24T19:58:54.958Z,84.17
2022-10-24T20:01:24.213Z,84.36
2022-10-24T20:03:52.087Z,84.51
2022-10-24T20:06:19.588Z,84.31
2022-10-24T20:08:47.911Z,84.25
2022-10-24T20:11:20.551Z,84.59
2022-10-24T20:13:48.708Z,84.35
2022-10-24T20:16:15.977Z,84.57
2022-10-24T20:18:43.821Z,84.29
2022-10-24T20:21:13.378Z,84.50
2022-10-24T20:23:41.720Z,84.65
2022-10-24T20:26:11.310Z,84.67
2022-10-24T20:28:41.155Z,84.50
2022-10-24T20:31:08.154Z,84.72
2022-10-24T20:33:35.356Z,84.46
2022-10-24T20:36:02.385Z,84.64
2022-10-24T20:38:29.515Z,84.71
2022-10-24T20:41:02.027Z,84.53
2022-10-24T20:43:30.114Z,84.75
2022-10-24T20:45:57.274Z,84.59
2022-10-24T20:48:24.271Z,84.51
2022-10-24T20:50:51.224Z,84.79
2022-10-24T20:53:19.308Z,84.65
2022-10-24T20:55:46.304Z,84.80
2022-10-24T20:58:13.721Z,84.62
2022-10-24T21:03:12.303Z,84.86
2022-10-24T21:05:39.435Z,84.82
2022-10-24T21:08:06.612Z,84.84
2022-10-24T21:10:33.670Z,84.97
2022-10-24T21:13:00.612Z,84.99
2022-10-24T21:15:27.622Z,84.89
2022-10-24T21:17:54.538Z,84.89
2022-10-24T21:20:21.518Z,85.08
2022-10-24T21:22:48.451Z,84.88
2022-10-24T21:25:15.540Z,85.03
2022-10-24T21:27:42.404Z,85.00
2022-10-24T21:30:14.430Z,85.15
2022-10-24T21:32:42.391Z,84.89
2022-10-24T21:35:09.458Z,84.88
2022-10-24T21:37:36.550Z,85.17
2022-10-24T21:40:03.683Z,85.11
2022-10-24T21:42:31.451Z,85.18
2022-10-24T21:44:58.597Z,85.14
2022-10-24T21:47:25.512Z,85.16
2022-10-24T21:49:52.563Z,85.07
2022-10-24T21:52:19.480Z,85.17
2022-10-24T21:54:46.520Z,85.22
2022-10-24T21:57:13.630Z,85.09
2022-10-24T21:59:40.551Z,85.04
2022-10-24T22:02:07.811Z,85.00
2022-10-24T22:04:34.830Z,85.43
2022-10-24T22:07:02.351Z,85.04
2022-10-24T22:09:29.340Z,85.36
2022-10-24T22:11:58.069Z,85.20
2022-10-24T22:14:25.430Z,85.18
2022-10-24T22:16:52.661Z,85.23
2022-10-24T22:19:19.830Z,85.29
2022-10-24T22:21:48.975Z,85.45
2022-10-24T22:24:21.452Z,85.39
2022-10-24T22:26:49.115Z,85.44
2022-10-24T22:29:18.652Z,85.23
2022-10-24T22:31:46.721Z,85.29
2022-10-24T22:34:20.272Z,85.19
2022-10-24T22:37:17.841Z,85.54
2022-10-24T22:39:45.190Z,85.35
2022-10-24T22:42:14.921Z,85.58
2022-10-24T22:44:45.571Z,85.55
2022-10-24T22:47:31.326Z,85.59
2022-10-24T22:50:21.793Z,85.62
2022-10-24T22:52:49.847Z,85.61
2022-10-24T22:55:33.486Z,85.63
2022-10-24T22:58:00.920Z,85.60
2022-10-24T23:00:28.121Z,85.71
2022-10-24T23:03:21.084Z,85.72
2022-10-24T23:05:54.811Z,85.72
2022-10-24T23:12:11.329Z,85.65
2022-10-24T23:14:38.530Z,85.57
2022-10-24T23:17:05.782Z,85.51
2022-10-24T23:19:32.978Z,85.38
2022-10-24T23:22:24.227Z,85.47
2022-10-24T23:25:01.234Z,85.34
2022-10-24T23:27:39.792Z,85.41
2022-10-24T23:30:16.005Z,85.59
2022-10-24T23:32:43.545Z,85.64
2022-10-24T23:35:13.550Z,85.69
2022-10-24T23:37:42.898Z,85.52
2022-10-24T23:40:31.078Z,85.70
2022-10-24T23:42:58.700Z,85.61
2022-10-24T23:45:28.313Z,85.80
2022-10-24T23:48:16.232Z,85.39
2022-10-24T23:51:04.162Z,85.70
2022-10-24T23:53:53.226Z,85.45
2022-10-24T23:56:22.856Z,85.54
2022-10-24T23:58:50.368Z,85.64
